sensor_id;sensor_type;location;lat;lon;timestamp;temperature;humidity
24087;DHT22;22893;50.572;7.234;2022-08-21T00:02:24;25.40;71.60
24087;DHT22;22893;50.572;7.234;2022-08-21T00:04:52;25.40;71.60
24087;DHT22;22893;50.572;7.234;2022-08-21T00:07:20;25.40;71.50
24087;DHT22;22893;50.572;7.234;2022-08-21T00:09:48;25.40;71.50
24087;DHT22;22893;50.572;7.234;2022-08-21T00:12:15;25.40;71.60
24087;DHT22;22893;50.572;7.234;2022-08-21T00:14:43;25.40;71.50
24087;DHT22;22893;50.572;7.234;2022-08-21T00:17:11;25.40;71.50
24087;DHT22;22893;50.572;7.234;2022-08-21T00:19:38;25.40;71.50
24087;DHT22;22893;50.572;7.234;2022-08-21T00:22:06;25.40;71.50
24087;DHT22;22893;50.572;7.234;2022-08-21T00:24:34;25.40;71.50
24087;DHT22;22893;50.572;7.234;2022-08-21T00:27:01;25.40;71.60
24087;DHT22;22893;50.572;7.234;2022-08-21T00:29:29;25.40;71.50
24087;DHT22;22893;50.572;7.234;2022-08-21T00:31:56;25.40;71.50
24087;DHT22;22893;50.572;7.234;2022-08-21T00:34:25;25.40;71.40
24087;DHT22;22893;50.572;7.234;2022-08-21T00:36:52;25.40;71.50
24087;DHT22;22893;50.572;7.234;2022-08-21T00:39:20;25.40;72.30
24087;DHT22;22893;50.572;7.234;2022-08-21T00:41:47;25.40;71.40
24087;DHT22;22893;50.572;7.234;2022-08-21T00:44:16;25.40;71.50
24087;DHT22;22893;50.572;7.234;2022-08-21T00:46:43;25.40;71.40
24087;DHT22;22893;50.572;7.234;2022-08-21T00:49:12;25.30;71.40
24087;DHT22;22893;50.572;7.234;2022-08-21T00:51:51;25.40;71.40
24087;DHT22;22893;50.572;7.234;2022-08-21T00:54:21;25.30;71.30
24087;DHT22;22893;50.572;7.234;2022-08-21T00:56:53;25.40;71.50
24087;DHT22;22893;50.572;7.234;2022-08-21T00:59:21;25.40;71.40
24087;DHT22;22893;50.572;7.234;2022-08-21T01:01:50;25.40;71.70
24087;DHT22;22893;50.572;7.234;2022-08-21T01:04:19;25.30;71.30
24087;DHT22;22893;50.572;7.234;2022-08-21T01:06:47;25.30;71.30
24087;DHT22;22893;50.572;7.234;2022-08-21T01:09:14;25.30;71.30
24087;DHT22;22893;50.572;7.234;2022-08-21T01:11:42;25.30;71.30
24087;DHT22;22893;50.572;7.234;2022-08-21T01:14:11;25.30;71.30
24087;DHT22;22893;50.572;7.234;2022-08-21T01:16:45;25.30;71.30
24087;DHT22;22893;50.572;7.234;2022-08-21T01:19:13;25.30;71.30
24087;DHT22;22893;50.572;7.234;2022-08-21T01:21:41;25.30;71.30
24087;DHT22;22893;50.572;7.234;2022-08-21T01:24:09;25.30;71.30
24087;DHT22;22893;50.572;7.234;2022-08-21T01:26:37;25.30;71.30
24087;DHT22;22893;50.572;7.234;2022-08-21T01:31:54;25.30;71.30
24087;DHT22;22893;50.572;7.234;2022-08-21T01:34:22;25.30;71.30
24087;DHT22;22893;50.572;7.234;2022-08-21T01:36:50;25.30;71.30
24087;DHT22;22893;50.572;7.234;2022-08-21T01:39:18;25.30;71.30
24087;DHT22;22893;50.572;7.234;2022-08-21T01:41:46;25.30;71.20
24087;DHT22;22893;50.572;7.234;2022-08-21T01:44:13;25.30;71.20
24087;DHT22;22893;50.572;7.234;2022-08-21T01:46:41;25.20;71.20
24087;DHT22;22893;50.572;7.234;2022-08-21T01:49:09;25.30;71.20
24087;DHT22;22893;50.572;7.234;2022-08-21T01:51:36;25.20;71.30
24087;DHT22;22893;50.572;7.234;2022-08-21T01:54:04;25.30;71.30
24087;DHT22;22893;50.572;7.234;2022-08-21T01:56:37;25.20;71.10
24087;DHT22;22893;50.572;7.234;2022-08-21T01:59:06;25.20;71.20
24087;DHT22;22893;50.572;7.234;2022-08-21T02:01:34;25.20;71.30
24087;DHT22;22893;50.572;7.234;2022-08-21T02:04:02;25.20;71.10
24087;DHT22;22893;50.572;7.234;2022-08-21T02:06:29;25.20;71.10
24087;DHT22;22893;50.572;7.234;2022-08-21T02:08:57;25.20;71.30
24087;DHT22;22893;50.572;7.234;2022-08-21T02:11:25;25.20;71.10
24087;DHT22;22893;50.572;7.234;2022-08-21T02:13:52;25.20;71.10
24087;DHT22;22893;50.572;7.234;2022-08-21T02:16:20;25.20;71.00
24087;DHT22;22893;50.572;7.234;2022-08-21T02:18:47;25.20;71.20
24087;DHT22;22893;50.572;7.234;2022-08-21T02:21:15;25.20;71.20
24087;DHT22;22893;50.572;7.234;2022-08-21T02:23:43;25.20;71.30
24087;DHT22;22893;50.572;7.234;2022-08-21T02:26:11;25.20;71.10
24087;DHT22;22893;50.572;7.234;2022-08-21T02:28:39;25.20;71.10
24087;DHT22;22893;50.572;7.234;2022-08-21T02:31:07;25.20;71.10
24087;DHT22;22893;50.572;7.234;2022-08-21T02:33:34;25.20;71.20
24087;DHT22;22893;50.572;7.234;2022-08-21T02:36:03;25.10;71.10
24087;DHT22;22893;50.572;7.234;2022-08-21T02:38:33;25.10;71.00
24087;DHT22;22893;50.572;7.234;2022-08-21T02:41:03;25.10;71.00
24087;DHT22;22893;50.572;7.234;2022-08-21T02:43:31;25.10;71.00
24087;DHT22;22893;50.572;7.234;2022-08-21T02:45:59;25.10;71.10
24087;DHT22;22893;50.572;7.234;2022-08-21T02:48:29;25.10;71.00
24087;DHT22;22893;50.572;7.234;2022-08-21T02:51:02;25.10;71.00
24087;DHT22;22893;50.572;7.234;2022-08-21T02:53:30;25.10;71.00
24087;DHT22;22893;50.572;7.234;2022-08-21T02:56:00;25.10;71.00
24087;DHT22;22893;50.572;7.234;2022-08-21T02:58:32;25.10;71.00
24087;DHT22;22893;50.572;7.234;2022-08-21T03:00:59;25.10;71.00
24087;DHT22;22893;50.572;7.234;2022-08-21T03:03:27;25.10;71.00
24087;DHT22;22893;50.572;7.234;2022-08-21T03:05:56;25.10;71.00
24087;DHT22;22893;50.572;7.234;2022-08-21T03:08:23;25.10;70.90
24087;DHT22;22893;50.572;7.234;2022-08-21T03:10:52;25.10;71.00
24087;DHT22;22893;50.572;7.234;2022-08-21T03:13:20;25.10;71.00
24087;DHT22;22893;50.572;7.234;2022-08-21T03:15:49;25.10;71.00
24087;DHT22;22893;50.572;7.234;2022-08-21T03:18:17;25.10;71.00
24087;DHT22;22893;50.572;7.234;2022-08-21T03:20:45;25.10;71.00
24087;DHT22;22893;50.572;7.234;2022-08-21T03:23:13;25.00;70.90
24087;DHT22;22893;50.572;7.234;2022-08-21T03:25:42;25.00;70.90
24087;DHT22;22893;50.572;7.234;2022-08-21T03:28:12;25.10;70.90
24087;DHT22;22893;50.572;7.234;2022-08-21T03:30:42;25.00;70.80
24087;DHT22;22893;50.572;7.234;2022-08-21T03:33:10;25.00;70.80
24087;DHT22;22893;50.572;7.234;2022-08-21T03:35:37;25.10;71.00
24087;DHT22;22893;50.572;7.234;2022-08-21T03:38:05;25.00;70.80
24087;DHT22;22893;50.572;7.234;2022-08-21T03:40:33;25.00;70.80
24087;DHT22;22893;50.572;7.234;2022-08-21T03:43:00;25.00;70.90
24087;DHT22;22893;50.572;7.234;2022-08-21T03:45:28;25.00;70.90
24087;DHT22;22893;50.572;7.234;2022-08-21T03:47:58;25.00;71.00
24087;DHT22;22893;50.572;7.234;2022-08-21T03:50:28;25.00;70.90
24087;DHT22;22893;50.572;7.234;2022-08-21T03:52:56;24.90;70.90
24087;DHT22;22893;50.572;7.234;2022-08-21T03:55:25;24.90;70.90
24087;DHT22;22893;50.572;7.234;2022-08-21T03:57:53;24.90;70.90
24087;DHT22;22893;50.572;7.234;2022-08-21T04:00:21;25.00;70.80
24087;DHT22;22893;50.572;7.234;2022-08-21T04:02:50;24.90;70.80
24087;DHT22;22893;50.572;7.234;2022-08-21T04:05:18;24.90;70.80
24087;DHT22;22893;50.572;7.234;2022-08-21T04:07:48;24.90;70.90
24087;DHT22;22893;50.572;7.234;2022-08-21T04:10:15;24.90;70.80
24087;DHT22;22893;50.572;7.234;2022-08-21T04:12:43;24.90;71.70
24087;DHT22;22893;50.572;7.234;2022-08-21T04:15:10;24.90;70.80
24087;DHT22;22893;50.572;7.234;2022-08-21T04:17:39;24.90;70.80
24087;DHT22;22893;50.572;7.234;2022-08-21T04:20:07;24.90;70.90
24087;DHT22;22893;50.572;7.234;2022-08-21T04:22:35;24.80;70.70
24087;DHT22;22893;50.572;7.234;2022-08-21T04:25:02;24.90;70.80
24087;DHT22;22893;50.572;7.234;2022-08-21T04:27:30;24.90;70.80
24087;DHT22;22893;50.572;7.234;2022-08-21T04:29:58;24.90;70.80
24087;DHT22;22893;50.572;7.234;2022-08-21T04:32:26;24.80;70.80
24087;DHT22;22893;50.572;7.234;2022-08-21T04:35:03;24.90;70.80
24087;DHT22;22893;50.572;7.234;2022-08-21T04:37:31;24.80;70.60
24087;DHT22;22893;50.572;7.234;2022-08-21T04:39:59;24.80;70.70
24087;DHT22;22893;50.572;7.234;2022-08-21T04:42:27;24.80;70.60
24087;DHT22;22893;50.572;7.234;2022-08-21T04:44:56;24.80;70.60
24087;DHT22;22893;50.572;7.234;2022-08-21T04:47:24;24.80;70.60
24087;DHT22;22893;50.572;7.234;2022-08-21T04:49:52;24.80;70.60
24087;DHT22;22893;50.572;7.234;2022-08-21T04:52:21;24.80;70.60
24087;DHT22;22893;50.572;7.234;2022-08-21T04:54:50;24.80;70.70
24087;DHT22;22893;50.572;7.234;2022-08-21T04:57:19;24.80;70.70
24087;DHT22;22893;50.572;7.234;2022-08-21T04:59:49;24.80;70.60
24087;DHT22;22893;50.572;7.234;2022-08-21T05:02:18;24.80;70.60
24087;DHT22;22893;50.572;7.234;2022-08-21T05:04:50;24.80;70.60
24087;DHT22;22893;50.572;7.234;2022-08-21T05:07:25;24.80;70.60
24087;DHT22;22893;50.572;7.234;2022-08-21T05:09:54;24.80;70.60
24087;DHT22;22893;50.572;7.234;2022-08-21T05:12:22;24.80;70.60
24087;DHT22;22893;50.572;7.234;2022-08-21T05:14:49;24.80;70.60
24087;DHT22;22893;50.572;7.234;2022-08-21T05:17:17;24.80;70.70
24087;DHT22;22893;50.572;7.234;2022-08-21T05:19:45;24.80;70.60
24087;DHT22;22893;50.572;7.234;2022-08-21T05:22:23;24.80;70.60
24087;DHT22;22893;50.572;7.234;2022-08-21T05:24:52;24.80;70.60
24087;DHT22;22893;50.572;7.234;2022-08-21T05:27:19;24.80;70.60
24087;DHT22;22893;50.572;7.234;2022-08-21T05:29:47;24.80;70.60
24087;DHT22;22893;50.572;7.234;2022-08-21T05:32:14;24.80;70.70
24087;DHT22;22893;50.572;7.234;2022-08-21T05:34:42;24.70;70.60
24087;DHT22;22893;50.572;7.234;2022-08-21T05:37:11;24.80;70.70
24087;DHT22;22893;50.572;7.234;2022-08-21T05:39:39;24.80;70.60
24087;DHT22;22893;50.572;7.234;2022-08-21T05:42:06;24.70;70.60
24087;DHT22;22893;50.572;7.234;2022-08-21T16:17:52;25.40;70.60
24087;DHT22;22893;50.572;7.234;2022-08-21T16:20:23;25.40;70.50
24087;DHT22;22893;50.572;7.234;2022-08-21T16:22:53;25.40;70.50
24087;DHT22;22893;50.572;7.234;2022-08-21T16:25:23;25.40;70.40
24087;DHT22;22893;50.572;7.234;2022-08-21T16:27:54;25.40;70.30
24087;DHT22;22893;50.572;7.234;2022-08-21T16:30:22;25.50;70.40
24087;DHT22;22893;50.572;7.234;2022-08-21T16:32:50;25.50;70.40
24087;DHT22;22893;50.572;7.234;2022-08-21T16:35:19;25.50;70.40
24087;DHT22;22893;50.572;7.234;2022-08-21T16:37:47;25.50;70.40
24087;DHT22;22893;50.572;7.234;2022-08-21T16:40:15;25.40;70.20
24087;DHT22;22893;50.572;7.234;2022-08-21T16:42:43;25.50;70.40
24087;DHT22;22893;50.572;7.234;2022-08-21T16:45:14;25.50;70.30
24087;DHT22;22893;50.572;7.234;2022-08-21T16:47:42;25.40;70.20
24087;DHT22;22893;50.572;7.234;2022-08-21T16:50:16;25.50;70.40
24087;DHT22;22893;50.572;7.234;2022-08-21T16:52:43;25.50;70.40
24087;DHT22;22893;50.572;7.234;2022-08-21T16:55:11;25.50;70.40
24087;DHT22;22893;50.572;7.234;2022-08-21T16:57:38;25.50;70.40
24087;DHT22;22893;50.572;7.234;2022-08-21T17:00:07;25.50;70.30
24087;DHT22;22893;50.572;7.234;2022-08-21T17:02:44;25.40;70.20
24087;DHT22;22893;50.572;7.234;2022-08-21T17:05:08;25.40;70.10
24087;DHT22;22893;50.572;7.234;2022-08-21T17:07:38;25.50;70.40
24087;DHT22;22893;50.572;7.234;2022-08-21T17:10:07;25.50;70.40
24087;DHT22;22893;50.572;7.234;2022-08-21T17:12:35;25.50;70.40
24087;DHT22;22893;50.572;7.234;2022-08-21T17:15:06;25.40;70.20
24087;DHT22;22893;50.572;7.234;2022-08-21T17:17:34;25.50;70.40
24087;DHT22;22893;50.572;7.234;2022-08-21T17:20:03;25.40;70.20
24087;DHT22;22893;50.572;7.234;2022-08-21T17:22:30;25.40;70.30
24087;DHT22;22893;50.572;7.234;2022-08-21T17:24:58;25.40;70.20
24087;DHT22;22893;50.572;7.234;2022-08-21T17:27:26;25.50;70.40
24087;DHT22;22893;50.572;7.234;2022-08-21T17:29:55;25.50;70.40
24087;DHT22;22893;50.572;7.234;2022-08-21T17:32:23;25.40;71.20
24087;DHT22;22893;50.572;7.234;2022-08-21T17:34:51;25.40;70.30
24087;DHT22;22893;50.572;7.234;2022-08-21T17:37:18;25.40;70.20
24087;DHT22;22893;50.572;7.234;2022-08-21T17:39:47;25.40;70.20
24087;DHT22;22893;50.572;7.234;2022-08-21T17:42:14;25.40;70.20
24087;DHT22;22893;50.572;7.234;2022-08-21T17:44:44;25.40;71.20
24087;DHT22;22893;50.572;7.234;2022-08-21T17:47:13;25.40;70.20
24087;DHT22;22893;50.572;7.234;2022-08-21T17:49:40;25.40;70.20
24087;DHT22;22893;50.572;7.234;2022-08-21T17:52:08;25.40;70.20
24087;DHT22;22893;50.572;7.234;2022-08-21T17:54:36;25.40;70.30
24087;DHT22;22893;50.572;7.234;2022-08-21T17:57:06;25.40;70.20
24087;DHT22;22893;50.572;7.234;2022-08-21T17:59:35;25.40;70.20
24087;DHT22;22893;50.572;7.234;2022-08-21T18:02:03;25.40;70.20
24087;DHT22;22893;50.572;7.234;2022-08-21T18:04:33;25.40;70.10
24087;DHT22;22893;50.572;7.234;2022-08-21T18:07:00;25.40;70.20
24087;DHT22;22893;50.572;7.234;2022-08-21T18:09:28;25.40;70.10
24087;DHT22;22893;50.572;7.234;2022-08-21T18:11:56;25.40;70.10
24087;DHT22;22893;50.572;7.234;2022-08-21T18:14:27;25.40;70.00
24087;DHT22;22893;50.572;7.234;2022-08-21T18:16:56;25.40;70.10
24087;DHT22;22893;50.572;7.234;2022-08-21T18:19:24;25.40;70.10
24087;DHT22;22893;50.572;7.234;2022-08-21T18:21:53;25.40;70.00
24087;DHT22;22893;50.572;7.234;2022-08-21T18:24:21;25.40;70.20
24087;DHT22;22893;50.572;7.234;2022-08-21T18:26:50;25.40;70.00
24087;DHT22;22893;50.572;7.234;2022-08-21T18:29:19;25.40;70.00
24087;DHT22;22893;50.572;7.234;2022-08-21T18:31:48;25.40;70.00
24087;DHT22;22893;50.572;7.234;2022-08-21T18:34:25;25.40;70.10
24087;DHT22;22893;50.572;7.234;2022-08-21T18:36:53;25.40;70.00
24087;DHT22;22893;50.572;7.234;2022-08-21T18:39:22;25.40;70.00
24087;DHT22;22893;50.572;7.234;2022-08-21T18:41:50;25.40;70.00
24087;DHT22;22893;50.572;7.234;2022-08-21T18:44:20;25.40;70.90
24087;DHT22;22893;50.572;7.234;2022-08-21T18:46:50;25.40;70.00
24087;DHT22;22893;50.572;7.234;2022-08-21T18:49:19;25.40;70.00
24087;DHT22;22893;50.572;7.234;2022-08-21T18:51:46;25.40;70.00
24087;DHT22;22893;50.572;7.234;2022-08-21T18:54:14;25.40;70.00
24087;DHT22;22893;50.572;7.234;2022-08-21T18:56:42;25.40;70.00
24087;DHT22;22893;50.572;7.234;2022-08-21T18:59:10;25.40;70.00
24087;DHT22;22893;50.572;7.234;2022-08-21T19:01:39;25.40;70.00
24087;DHT22;22893;50.572;7.234;2022-08-21T19:04:07;25.40;70.00
24087;DHT22;22893;50.572;7.234;2022-08-21T19:06:36;25.40;70.10
24087;DHT22;22893;50.572;7.234;2022-08-21T19:09:06;25.40;70.00
24087;DHT22;22893;50.572;7.234;2022-08-21T19:11:39;25.40;70.00
24087;DHT22;22893;50.572;7.234;2022-08-21T19:14:10;25.40;70.00
24087;DHT22;22893;50.572;7.234;2022-08-21T19:16:39;25.40;70.00
24087;DHT22;22893;50.572;7.234;2022-08-21T19:19:09;25.30;69.90
24087;DHT22;22893;50.572;7.234;2022-08-21T19:21:37;25.40;70.00
24087;DHT22;22893;50.572;7.234;2022-08-21T19:24:05;25.40;70.00
24087;DHT22;22893;50.572;7.234;2022-08-21T19:26:34;25.40;70.00
24087;DHT22;22893;50.572;7.234;2022-08-21T19:29:05;25.40;70.00
24087;DHT22;22893;50.572;7.234;2022-08-21T19:31:37;25.40;70.10
24087;DHT22;22893;50.572;7.234;2022-08-21T19:34:11;25.40;70.90
24087;DHT22;22893;50.572;7.234;2022-08-21T19:36:36;25.40;70.10
24087;DHT22;22893;50.572;7.234;2022-08-21T19:39:04;25.40;70.10
24087;DHT22;22893;50.572;7.234;2022-08-21T19:41:35;25.40;70.20
24087;DHT22;22893;50.572;7.234;2022-08-21T19:44:06;25.40;70.10
24087;DHT22;22893;50.572;7.234;2022-08-21T19:46:35;25.30;70.00
24087;DHT22;22893;50.572;7.234;2022-08-21T19:49:05;25.30;70.20
24087;DHT22;22893;50.572;7.234;2022-08-21T19:51:34;25.40;70.20
24087;DHT22;22893;50.572;7.234;2022-08-21T19:54:03;25.30;70.40
24087;DHT22;22893;50.572;7.234;2022-08-21T19:56:32;25.30;70.40
24087;DHT22;22893;50.572;7.234;2022-08-21T19:58:59;25.30;70.50
24087;DHT22;22893;50.572;7.234;2022-08-21T20:01:27;25.30;70.40
24087;DHT22;22893;50.572;7.234;2022-08-21T20:03:55;25.30;70.40
24087;DHT22;22893;50.572;7.234;2022-08-21T20:06:23;25.30;70.20
24087;DHT22;22893;50.572;7.234;2022-08-21T20:08:52;25.30;70.20
24087;DHT22;22893;50.572;7.234;2022-08-21T20:11:32;25.30;70.20
24087;DHT22;22893;50.572;7.234;2022-08-21T20:14:00;25.30;70.20
24087;DHT22;22893;50.572;7.234;2022-08-21T20:16:29;25.30;69.90
24087;DHT22;22893;50.572;7.234;2022-08-21T20:18:57;25.30;70.00
24087;DHT22;22893;50.572;7.234;2022-08-21T20:21:26;25.30;70.00
24087;DHT22;22893;50.572;7.234;2022-08-21T20:23:53;25.30;70.00
24087;DHT22;22893;50.572;7.234;2022-08-21T20:26:21;25.30;70.00
24087;DHT22;22893;50.572;7.234;2022-08-21T20:28:49;25.30;70.10
24087;DHT22;22893;50.572;7.234;2022-08-21T20:31:17;25.30;70.00
24087;DHT22;22893;50.572;7.234;2022-08-21T20:33:47;25.30;70.20
24087;DHT22;22893;50.572;7.234;2022-08-21T20:36:15;25.30;70.20
24087;DHT22;22893;50.572;7.234;2022-08-21T20:38:43;25.30;70.20
24087;DHT22;22893;50.572;7.234;2022-08-21T20:41:11;25.30;70.20
24087;DHT22;22893;50.572;7.234;2022-08-21T20:43:39;25.30;70.20
24087;DHT22;22893;50.572;7.234;2022-08-21T20:46:08;25.30;70.20
24087;DHT22;22893;50.572;7.234;2022-08-21T20:48:38;25.30;70.00
24087;DHT22;22893;50.572;7.234;2022-08-21T20:51:12;25.30;68.10
24087;DHT22;22893;50.572;7.234;2022-08-21T21:01:50;25.20;69.90
24087;DHT22;22893;50.572;7.234;2022-08-21T21:07:27;25.30;70.00
24087;DHT22;22893;50.572;7.234;2022-08-21T21:09:51;25.30;69.80
24087;DHT22;22893;50.572;7.234;2022-08-21T21:12:30;25.30;69.20
24087;DHT22;22893;50.572;7.234;2022-08-21T21:14:57;25.30;69.10
24087;DHT22;22893;50.572;7.234;2022-08-21T21:17:40;25.20;68.90
24087;DHT22;22893;50.572;7.234;2022-08-21T21:20:36;25.20;68.80
24087;DHT22;22893;50.572;7.234;2022-08-21T21:22:52;25.20;68.80
24087;DHT22;22893;50.572;7.234;2022-08-21T21:25:35;25.20;68.60
24087;DHT22;22893;50.572;7.234;2022-08-21T21:28:13;25.20;68.50
24087;DHT22;22893;50.572;7.234;2022-08-21T21:30:41;25.20;68.60
24087;DHT22;22893;50.572;7.234;2022-08-21T21:33:10;25.20;68.60
24087;DHT22;22893;50.572;7.234;2022-08-21T21:35:46;25.20;68.50
24087;DHT22;22893;50.572;7.234;2022-08-21T21:38:22;25.20;68.50
24087;DHT22;22893;50.572;7.234;2022-08-21T21:41:16;25.20;68.40
24087;DHT22;22893;50.572;7.234;2022-08-21T21:57:41;25.20;68.60
24087;DHT22;22893;50.572;7.234;2022-08-21T22:00:24;25.20;68.60
24087;DHT22;22893;50.572;7.234;2022-08-21T22:05:38;25.20;68.70
24087;DHT22;22893;50.572;7.234;2022-08-21T22:16:34;25.20;68.90
24087;DHT22;22893;50.572;7.234;2022-08-21T22:19:09;25.20;69.00
24087;DHT22;22893;50.572;7.234;2022-08-21T22:21:37;25.10;68.80
24087;DHT22;22893;50.572;7.234;2022-08-21T22:24:15;25.20;68.90
24087;DHT22;22893;50.572;7.234;2022-08-21T22:26:48;25.10;68.80
24087;DHT22;22893;50.572;7.234;2022-08-21T22:29:18;25.20;68.80
24087;DHT22;22893;50.572;7.234;2022-08-21T22:32:05;25.20;68.90
24087;DHT22;22893;50.572;7.234;2022-08-21T22:34:33;25.10;68.80
24087;DHT22;22893;50.572;7.234;2022-08-21T22:37:03;25.20;68.80
24087;DHT22;22893;50.572;7.234;2022-08-21T22:39:34;25.10;68.50
24087;DHT22;22893;50.572;7.234;2022-08-21T22:42:05;25.10;69.60
24087;DHT22;22893;50.572;7.234;2022-08-21T22:44:33;25.10;68.70
24087;DHT22;22893;50.572;7.234;2022-08-21T22:47:02;25.10;68.80
24087;DHT22;22893;50.572;7.234;2022-08-21T22:49:41;25.10;69.00
24087;DHT22;22893;50.572;7.234;2022-08-21T22:52:25;25.10;68.90
24087;DHT22;22893;50.572;7.234;2022-08-21T22:54:54;25.10;68.90
24087;DHT22;22893;50.572;7.234;2022-08-21T22:57:30;25.10;68.90
24087;DHT22;22893;50.572;7.234;2022-08-21T23:02:41;25.10;68.90
24087;DHT22;22893;50.572;7.234;2022-08-21T23:05:30;25.10;68.80
24087;DHT22;22893;50.572;7.234;2022-08-21T23:07:52;25.10;68.90
24087;DHT22;22893;50.572;7.234;2022-08-21T23:10:30;25.10;68.60
24087;DHT22;22893;50.572;7.234;2022-08-21T23:13:05;25.10;68.60
24087;DHT22;22893;50.572;7.234;2022-08-21T23:15:44;25.10;68.70
24087;DHT22;22893;50.572;7.234;2022-08-21T23:18:32;25.10;69.00
24087;DHT22;22893;50.572;7.234;2022-08-21T23:21:04;25.10;69.00
24087;DHT22;22893;50.572;7.234;2022-08-21T23:23:33;25.10;69.10
24087;DHT22;22893;50.572;7.234;2022-08-21T23:26:19;25.10;69.00
24087;DHT22;22893;50.572;7.234;2022-08-21T23:29:03;25.10;69.10
24087;DHT22;22893;50.572;7.234;2022-08-21T23:32:00;25.10;69.10
24087;DHT22;22893;50.572;7.234;2022-08-21T23:37:07;25.10;69.20
24087;DHT22;22893;50.572;7.234;2022-08-21T23:42:44;25.10;69.10
24087;DHT22;22893;50.572;7.234;2022-08-21T23:45:32;25.10;69.10
24087;DHT22;22893;50.572;7.234;2022-08-21T23:48:19;25.10;69.20
24087;DHT22;22893;50.572;7.234;2022-08-21T23:50:50;25.10;69.20
24087;DHT22;22893;50.572;7.234;2022-08-21T23:53:32;25.10;70.00
